PROFILE

 METAR AND TAF INFORMATION
ADDS - METARS form results

(0721 UTC 20 September 2020)
http://aviationweather.gov/metar/data/
 
LFKJ 200700Z AUTO 02003KT 340V070 CAVOK 22/19 Q1014 TEMPO 4000 TSRA SCT020 FEW030CB BKN050 BECMG 23010KT
LFKJ 200630Z AUTO VRB02KT 9999 ///CB 21/19 Q1014 TEMPO 4000 TSRA
TAF LFKJ 200200Z 2003/2103 04006KT 9999 BKN040 TEMPO 2003/2009 RA SCT020 FEW030CB BKN050 PROB40 TEMPO 2003/2008 4000 TSRA BKN020 SCT030CB BKN040 BECMG 2008/2010 23010KT BECMG 2017/2019 04005KT TEMPO 2022/2101 BKN030 FEW035CB 

 AIRPORT MAP

 RUNWAY INFORMATION
Runway 02 Runway length 7897 ft Runway width 148 ft
Runway elevation 15 ft Runway displaced threshold 0 ft Runway heading 25
Runway 20 Runway length 7897 ft Runway width 148 ft
Runway elevation 18 ft Runway displaced threshold 744 ft Runway heading 205

 AIRPORT FREQUENCIES
Type AFIS Name AFIS Frequency 119.825 MHZ
Type APP Name AJACCIO AP Frequency 121.05 MHZ
Type ATIS Name AJACCIO AT Frequency 126.925 MHZ
Type GND Name AJACCIO GN Frequency 121.7 MHZ
Type TWR Name AJACCIO TW Frequency 118.075 MHZ

 AIRPORT NEAR NAVIGATION AIDS
Type NDB Name Ajaccio/Campo Dell Oro Frequency 341 KHZ